Flight Track Log - Related Links

Times and Time Zones

All times are in EDT time to prevent confusion due to time zone crossing. See the TRS500 flight status page for this flight to view local times or setup timezone preferences in your user account.

Time Position Orientation Groundspeed Altitude Reporting Facility
EDT Latitude Longitude Course Direction KTS MPH feet Rate Location/Type
Mon 07:38:14 PM 26.0750 -80.1344 89° East 173 199 800  Level Miami Center
Mon 07:38:26 PM 26.0753 -80.1206 89° East 171 197 1,200 1,784 Climbing Miami Center
Mon 07:39:28 PM 26.0872 -80.0583 78° East 220 253 3,000 1,805 Climbing Miami Center
Mon 07:40:29 PM 26.1450 -80.0831 339° North 265 305 4,900 1,017 Climbing Miami Center
Mon 07:41:26 PM 26.2108 -80.1311 327° Northwest 266 306 5,000 1,385 Climbing Miami Center
Mon 07:42:26 PM 26.2703 -80.1769 325° Northwest 288 331 7,600 2,700 Climbing Miami Center
Mon 07:43:26 PM 26.3278 -80.2200 326° Northwest 281 323 10,400 2,250 Climbing Miami Center
Mon 07:44:26 PM 26.4167 -80.2644 336° Northwest 293 337 12,100 1,600 Climbing Miami Center
Mon 07:45:26 PM 26.4992 -80.3064 336° Northwest 346 398 13,600 1,950 Climbing Miami Center
Mon 07:46:26 PM 26.6106 -80.3606 337° Northwest 382 440 16,000 2,150 Climbing Miami Center
Mon 07:47:26 PM 26.7036 -80.4053 337° Northwest 395 455 17,900 1,950 Climbing Miami Center
Mon 07:48:26 PM 26.8089 -80.4572 336° Northwest 402 463 19,900 2,100 Climbing Miami Center
Mon 07:49:26 PM 26.9139 -80.5117 335° Northwest 407 468 22,100 2,250 Climbing Miami Center
Mon 07:50:26 PM 27.0150 -80.5639 335° Northwest 407 468 24,400 1,800 Climbing Miami Center
Mon 07:51:26 PM 27.1200 -80.6161 336° Northwest 402 463 25,700 1,150 Climbing Miami Center
Mon 07:52:26 PM 27.2275 -80.6664 337° Northwest 402 463 26,700 1,000 Climbing Miami Center
Mon 07:53:26 PM 27.3364 -80.7239 335° Northwest 419 482 27,700 1,050 Climbing Miami Center
Mon 07:54:26 PM 27.4622 -80.7842 337° Northwest 425 489 28,800 1,050 Climbing Miami Center
Mon 07:55:26 PM 27.5733 -80.8419 335° Northwest 434 499 29,800 1,000 Climbing Miami Center
Mon 07:56:26 PM 27.6886 -80.8997 336° Northwest 439 505 30,800 600 Climbing Miami Center
Mon 07:57:26 PM 27.8058 -80.9578 336° Northwest 439 505 31,000 50 Climbing Miami Center
Mon 07:58:26 PM 27.9231 -81.0208 335° Northwest 449 517 30,900 -50 Descending Miami Center
Mon 07:59:26 PM 28.0425 -81.0769 337° Northwest 462 532 30,900 50 Level Miami Center
Mon 08:00:26 PM 28.1556 -81.1400 334° Northwest 455 524 31,000 50 Climbing Miami Center
Mon 08:01:26 PM 28.2747 -81.1989 336° Northwest 455 524 31,000 -50 Level Miami Center
Mon 08:02:26 PM 28.3917 -81.2600 335° Northwest 456 525 30,900  Descending Miami Center
Mon 08:03:26 PM 28.5089 -81.3189 336° Northwest 456 525 31,000 47 Climbing Miami Center
Mon 08:04:35 PM 28.6375 -81.3575 345° North 463 533 31,000 -47 Level Jacksonville Center
Mon 08:05:35 PM 28.7650 -81.3839 350° North 463 533 30,900  Descending Jacksonville Center
Mon 08:06:35 PM 28.8906 -81.4081 350° North 463 533 31,000 50 Climbing Jacksonville Center
Mon 08:07:35 PM 29.0181 -81.4322 351° North 463 533 31,000  Level Jacksonville Center
Mon 08:08:35 PM 29.1458 -81.4567 351° North 463 533 31,000  Level Jacksonville Center
Mon 08:09:35 PM 29.2714 -81.4856 349° North 463 533 31,000 -50 Level Jacksonville Center
Mon 08:10:35 PM 29.3989 -81.5125 350° North 463 533 30,900  Descending Jacksonville Center
Mon 08:11:35 PM 29.5225 -81.5442 347° North 463 533 31,000  Climbing Jacksonville Center
Mon 08:12:35 PM 29.6461 -81.5878 343° North 463 533 30,900  Descending Jacksonville Center
Mon 08:13:35 PM 29.7675 -81.6317 343° North 458 527 31,000  Climbing Jacksonville Center
Mon 08:14:35 PM 29.8911 -81.6731 344° North 458 527 30,900  Descending Jacksonville Center
Mon 08:15:35 PM 30.0128 -81.7172 343° North 458 527 31,000 50 Climbing Jacksonville Center
Mon 08:16:35 PM 30.1361 -81.7542 345° North 458 527 31,000  Level Jacksonville Center
Mon 08:17:35 PM 30.2597 -81.7983 343° North 458 527 31,000  Level Jacksonville Center
Mon 08:18:35 PM 30.3853 -81.8428 343° North 463 533 31,000 -50 Level Jacksonville Center
Mon 08:19:35 PM 30.5047 -81.8872 342° North 458 527 30,900  Descending Jacksonville Center
Mon 08:20:35 PM 30.6431 -81.9389 342° North 465 535 31,000 50 Climbing Jacksonville Center
Mon 08:21:35 PM 30.7644 -81.9836 342° North 465 535 31,000  Level Jacksonville Center
Mon 08:22:35 PM 30.8858 -82.0283 342° North 465 535 31,000  Level Jacksonville Center
Mon 08:23:35 PM 31.0031 -82.0708 343° North 454 522 31,000 -50 Level Jacksonville Center
Mon 08:24:35 PM 31.1264 -82.1136 343° North 454 522 30,900  Descending Jacksonville Center
Mon 08:25:35 PM 31.2356 -82.1903 329° Northwest 454 522 31,000  Climbing Jacksonville Center
Mon 08:26:35 PM 31.3444 -82.2650 330° Northwest 454 522 30,900  Descending Jacksonville Center
Mon 08:27:35 PM 31.4450 -82.3275 332° Northwest 453 521 31,000 50 Climbing Jacksonville Center
Mon 08:28:35 PM 31.5539 -82.4025 330° Northwest 453 521 31,000  Level Jacksonville Center
Mon 08:30:25 PM 31.7564 -82.5442 329° Northwest 464 534 31,000  Level Atlanta Center
Mon 08:31:25 PM 31.8658 -82.6181 330° Northwest 464 534 31,000  Level Atlanta Center
Mon 08:32:25 PM 31.9731 -82.6922 330° Northwest 459 528 31,000 -250 Level Atlanta Center
Mon 08:33:25 PM 32.0742 -82.7789 324° Northwest 454 522 30,500 -650 Descending Atlanta Center
Mon 08:34:25 PM 32.1753 -82.8708 322° Northwest 454 522 29,700 -800 Descending Atlanta Center
Mon 08:35:25 PM 32.2761 -82.9603 323° Northwest 460 529 28,900 -800 Descending Atlanta Center
Mon 08:36:25 PM 32.3792 -83.0500 324° Northwest 460 529 28,100 -800 Descending Atlanta Center
Mon 08:37:25 PM 32.4800 -83.1425 322° Northwest 460 529 27,300 -800 Descending Atlanta Center
Mon 08:38:25 PM 32.5789 -83.2328 322° Northwest 460 529 26,500 -800 Descending Atlanta Center
Mon 08:39:25 PM 32.6775 -83.3208 323° Northwest 455 524 25,700 -1,350 Descending Atlanta Center
Mon 08:40:25 PM 32.7761 -83.4089 323° Northwest 448 516 23,800 -2,350 Descending Atlanta Center
Mon 08:41:25 PM 32.8683 -83.4947 322° Northwest 436 502 21,000 -2,800 Descending Atlanta Center
Mon 08:42:25 PM 32.9542 -83.5758 322° Northwest 415 478 18,200 -2,750 Descending Atlanta Center
Mon 08:43:25 PM 33.0400 -83.6522 323° Northwest 400 460 15,500 -2,650 Descending Atlanta Center
Mon 08:44:25 PM 33.1217 -83.7264 323° Northwest 383 441 12,900 -1,700 Descending Atlanta Center
Mon 08:45:25 PM 33.1992 -83.7981 322° Northwest 343 395 12,100 -550 Descending Atlanta Center
Mon 08:46:25 PM 33.2514 -83.8650 313° West 294 338 11,800 -600 Descending Atlanta Center
Mon 08:47:25 PM 33.2994 -83.9369 309° West 271 312 10,900 -900 Descending Atlanta Center
Mon 08:48:25 PM 33.3517 -84.0039 313° West 271 312 10,000 -950 Descending Atlanta Center
Mon 08:49:25 PM 33.4269 -84.0364 340° North 277 319 9,000 -1,250 Descending Atlanta Center
Mon 08:50:25 PM 33.4978 -84.0686 339° North 277 319 7,500 -1,500 Descending Atlanta Center
Mon 08:51:25 PM 33.5606 -84.1111 331° Northwest 264 304 6,000 -1,359 Descending Atlanta Center
Mon 08:52:33 PM 33.6000 -84.1833 303° West 216 249 4,600 -1,219 Descending Atlanta TRACON
Mon 08:53:33 PM 33.6167 -84.2500 287° West 195 224 3,400 -900 Descending Atlanta TRACON
Mon 08:54:33 PM 33.6333 -84.3000 292° West 151 174 2,800 -650 Descending Atlanta TRACON
Mon 08:55:33 PM 33.6333 -84.3500 270° West 137 158 2,100 -700 Descending Atlanta TRACON
Mon 08:56:33 PM 33.6333 -84.3833 270° West 139 160 1,400 -700 Descending Atlanta TRACON
Mon 08:58:00 PM 33.6367 -84.4279 270° West  Level Estimated
Mon 09:05:00 PM 33.6367 -84.4279 103° East  Level Estimated
Mon 09:06:00 PM 33.6367 -84.4279 103° East  Level Estimated

Login

Don't have an account? Register now (free) for customized features, flight alerts, and more!